Time,TemperatureF,DewpointF,PressureIn,WindDirection,WindDirectionDegrees,WindSpeedMPH,WindSpeedGustMPH,Humidity,HourlyPrecipIn,Conditions,Clouds,dailyrainin,SoftwareType,DateUTC
2013-05-15 00:14:00,44.2,43.7,29.89,SE,135,0.0,-999.0,98,-99.99,,,0.00,Acu-Link.com,2013-05-15 06:14:00,
2013-05-15 00:29:00,43.2,42.7,29.88,West,270,2.2,-999.0,98,-99.99,,,0.00,Acu-Link.com,2013-05-15 06:29:00,
2013-05-15 00:45:00,42.8,42.3,29.89,West,270,2.7,-999.0,98,-99.99,,,0.00,Acu-Link.com,2013-05-15 06:45:00,
2013-05-15 01:00:00,42.1,41.6,29.88,WSW,247,2.2,-999.0,98,-99.99,,,0.00,Acu-Link.com,2013-05-15 07:00:00,
2013-05-15 01:15:00,41.7,41.2,29.89,SSW,202,0.0,-999.0,98,-99.99,,,0.00,Acu-Link.com,2013-05-15 07:15:00,
2013-05-15 01:30:00,40.5,40.0,29.89,WSW,247,0.0,-999.0,98,-99.99,,,0.00,Acu-Link.com,2013-05-15 07:30:00,
2013-05-15 01:45:00,39.9,39.4,29.88,NNE,22,2.2,-999.0,98,-99.99,,,0.00,Acu-Link.com,2013-05-15 07:45:00,
2013-05-15 02:00:00,39.7,39.2,29.89,NNE,22,3.2,-999.0,98,-99.99,,,0.00,Acu-Link.com,2013-05-15 08:00:00,
2013-05-15 02:15:00,39.9,39.4,29.88,NNW,337,0.0,-999.0,98,-99.99,,,0.00,Acu-Link.com,2013-05-15 08:15:00,
2013-05-15 02:31:00,40.3,39.8,29.88,NNE,22,1.7,-999.0,98,-99.99,,,0.00,Acu-Link.com,2013-05-15 08:31:00,
2013-05-15 02:46:00,38.7,38.2,29.88,NNW,337,0.0,-999.0,98,-99.99,,,0.00,Acu-Link.com,2013-05-15 08:46:00,
2013-05-15 03:01:00,37.6,37.1,29.88,NNE,22,0.0,-999.0,98,-99.99,,,0.00,Acu-Link.com,2013-05-15 09:01:00,
2013-05-15 03:16:00,37.0,36.5,29.89,NW,315,0.0,-999.0,98,-99.99,,,0.00,Acu-Link.com,2013-05-15 09:16:00,
2013-05-15 03:31:00,36.7,36.2,29.87,SSE,157,0.0,-999.0,98,-99.99,,,0.00,Acu-Link.com,2013-05-15 09:31:00,
2013-05-15 03:46:00,36.1,35.6,29.88,SSE,157,0.0,-999.0,98,-99.99,,,0.00,Acu-Link.com,2013-05-15 09:46:00,
2013-05-15 04:02:00,36.1,35.6,29.88,West,270,0.0,-999.0,98,-99.99,,,0.00,Acu-Link.com,2013-05-15 10:02:00,
2013-05-15 04:17:00,36.3,35.8,29.88,SSE,157,0.0,-999.0,98,-99.99,,,0.00,Acu-Link.com,2013-05-15 10:17:00,
2013-05-15 04:32:00,36.3,35.8,29.88,NW,315,0.0,-999.0,98,-99.99,,,0.00,Acu-Link.com,2013-05-15 10:32:00,
2013-05-15 04:48:00,36.0,35.5,29.88,NNW,337,1.1,-999.0,98,-99.99,,,0.00,Acu-Link.com,2013-05-15 10:48:00,
2013-05-15 05:03:00,35.4,34.9,29.88,WSW,247,0.0,-999.0,98,-99.99,,,0.00,Acu-Link.com,2013-05-15 11:03:00,
2013-05-15 05:18:00,34.9,34.4,29.88,West,270,0.0,-999.0,98,-99.99,,,0.00,Acu-Link.com,2013-05-15 11:18:00,
2013-05-15 05:33:00,35.8,35.3,29.88,WNW,292,0.0,-999.0,98,-99.99,,,0.00,Acu-Link.com,2013-05-15 11:33:00,
2013-05-15 05:49:00,34.7,34.2,29.88,NNE,22,1.7,-999.0,98,-99.99,,,0.00,Acu-Link.com,2013-05-15 11:49:00,
2013-05-15 06:04:00,35.8,35.3,29.90,East,90,1.7,-999.0,98,-99.99,,,0.00,Acu-Link.com,2013-05-15 12:04:00,
2013-05-15 06:19:00,35.2,34.7,29.89,NW,315,1.7,-999.0,98,-99.99,,,0.00,Acu-Link.com,2013-05-15 12:19:00,
2013-05-15 06:35:00,37.0,36.5,29.89,NNE,22,1.7,-999.0,98,-99.99,,,0.00,Acu-Link.com,2013-05-15 12:35:00,
2013-05-15 06:50:00,37.2,36.7,29.89,NE,45,0.0,-999.0,98,-99.99,,,0.00,Acu-Link.com,2013-05-15 12:50:00,
2013-05-15 07:21:00,38.1,37.6,29.91,SW,225,1.1,-999.0,98,-99.99,,,0.00,Acu-Link.com,2013-05-15 13:21:00,
2013-05-15 07:36:00,38.8,38.3,29.90,South,180,1.7,-999.0,98,-99.99,,,0.00,Acu-Link.com,2013-05-15 13:36:00,
2013-05-15 08:06:00,43.0,42.5,29.91,South,180,2.2,-999.0,98,-99.99,,,0.00,Acu-Link.com,2013-05-15 14:06:00,
2013-05-15 08:37:00,46.6,46.1,29.91,WSW,247,2.7,-999.0,98,-99.99,,,0.00,Acu-Link.com,2013-05-15 14:37:00,
2013-05-15 09:08:00,52.0,46.7,29.91,SSE,157,3.2,-999.0,82,-99.99,,,0.00,Acu-Link.com,2013-05-15 15:08:00,
2013-05-15 09:23:00,50.2,44.6,29.91,West,270,0.0,-999.0,81,-99.99,,,0.00,Acu-Link.com,2013-05-15 15:23:00,
2013-05-15 09:38:00,52.0,46.7,29.89,South,180,3.7,-999.0,82,-99.99,,,0.00,Acu-Link.com,2013-05-15 15:38:00,
2013-05-15 09:53:00,51.4,45.1,29.89,SW,225,2.2,-999.0,79,-99.99,,,0.00,Acu-Link.com,2013-05-15 15:53:00,
2013-05-15 10:09:00,52.7,45.7,29.89,SW,225,2.7,-999.0,77,-99.99,,,0.00,Acu-Link.com,2013-05-15 16:09:00,
2013-05-15 10:24:00,54.0,44.1,29.88,WNW,292,2.2,-999.0,69,-99.99,,,0.00,Acu-Link.com,2013-05-15 16:24:00,
2013-05-15 10:55:00,56.1,46.5,29.87,SW,225,3.7,-999.0,70,-99.99,,,0.00,Acu-Link.com,2013-05-15 16:55:00,
2013-05-15 11:25:00,59.2,47.4,29.86,West,270,4.7,-999.0,65,-99.99,,,0.00,Acu-Link.com,2013-05-15 17:25:00,
2013-05-15 11:40:00,62.1,48.0,29.84,SW,225,2.7,-999.0,60,-99.99,,,0.00,Acu-Link.com,2013-05-15 17:40:00,
2013-05-15 11:55:00,63.9,47.4,29.83,South,180,4.2,-999.0,55,-99.99,,,0.00,Acu-Link.com,2013-05-15 17:55:00,
2013-05-15 12:11:00,65.7,48.1,29.82,ESE,112,3.7,-999.0,53,-99.99,,,0.00,Acu-Link.com,2013-05-15 18:11:00,
2013-05-15 12:26:00,68.5,48.6,29.82,SSW,202,2.7,-999.0,49,-99.99,,,0.00,Acu-Link.com,2013-05-15 18:26:00,
2013-05-15 12:41:00,70.2,46.6,29.80,South,180,5.8,-999.0,43,-99.99,,,0.00,Acu-Link.com,2013-05-15 18:41:00,
2013-05-15 13:12:00,75.0,43.1,29.76,West,270,4.7,-999.0,32,-99.99,,,0.00,Acu-Link.com,2013-05-15 19:12:00,
2013-05-15 13:27:00,76.1,43.3,29.75,SE,135,4.7,-999.0,31,-99.99,,,0.00,Acu-Link.com,2013-05-15 19:27:00,
2013-05-15 13:42:00,75.9,43.1,29.75,SSE,157,4.7,-999.0,31,-99.99,,,0.00,Acu-Link.com,2013-05-15 19:42:00,
2013-05-15 13:58:00,78.8,43.8,29.74,ESE,112,5.8,-999.0,29,-99.99,,,0.00,Acu-Link.com,2013-05-15 19:58:00,
2013-05-15 14:13:00,70.3,43.5,29.74,NNE,22,6.8,-999.0,38,-99.99,,,0.00,Acu-Link.com,2013-05-15 20:13:00,
2013-05-15 14:28:00,65.8,45.6,29.75,NE,45,10.4,-999.0,48,-99.99,,,0.01,Acu-Link.com,2013-05-15 20:28:00,
2013-05-15 14:43:00,63.0,45.6,29.75,South,180,5.8,-999.0,53,-99.99,,,0.01,Acu-Link.com,2013-05-15 20:43:00,
2013-05-15 14:58:00,65.1,47.0,29.75,SW,225,2.2,-999.0,52,-99.99,,,0.01,Acu-Link.com,2013-05-15 20:58:00,
2013-05-15 15:14:00,72.1,48.4,29.73,SE,135,5.3,-999.0,43,-99.99,,,0.01,Acu-Link.com,2013-05-15 21:14:00,
2013-05-15 15:45:00,72.0,44.3,29.72,NNE,22,6.3,-999.0,37,-99.99,,,0.01,Acu-Link.com,2013-05-15 21:45:00,
2013-05-15 16:00:00,68.7,44.0,29.71,ENE,67,8.9,-999.0,41,-99.99,,,0.01,Acu-Link.com,2013-05-15 22:00:00,
2013-05-15 16:15:00,68.2,42.3,29.71,NNE,22,5.8,-999.0,39,-99.99,,,0.01,Acu-Link.com,2013-05-15 22:15:00,
2013-05-15 16:46:00,64.9,45.8,29.75,SW,225,6.3,-999.0,50,-99.99,,,0.01,Acu-Link.com,2013-05-15 22:46:00,
2013-05-15 17:32:00,59.2,45.3,29.78,NE,45,11.9,-999.0,60,-99.99,,,0.01,Acu-Link.com,2013-05-15 23:32:00,
2013-05-15 18:02:00,56.3,46.6,29.79,ENE,67,13.5,-999.0,70,-99.99,,,0.01,Acu-Link.com,2013-05-16 00:02:00,
2013-05-15 18:17:00,59.2,47.8,29.78,East,90,10.4,-999.0,66,-99.99,,,0.01,Acu-Link.com,2013-05-16 00:17:00,
2013-05-15 18:35:00,58.5,47.2,29.77,East,90,10.9,-999.0,66,-99.99,,,0.01,Acu-Link.com,2013-05-16 00:35:00,
2013-05-15 18:51:00,57.7,46.4,29.78,ENE,67,8.3,-999.0,66,-99.99,,,0.01,Acu-Link.com,2013-05-16 00:51:00,
2013-05-15 19:21:00,55.8,46.9,29.77,ESE,112,5.3,-999.0,72,-99.99,,,0.01,Acu-Link.com,2013-05-16 01:21:00,
2013-05-15 19:37:00,54.7,47.3,29.79,SE,135,7.8,-999.0,76,-99.99,,,0.01,Acu-Link.com,2013-05-16 01:37:00,
2013-05-15 19:53:00,54.3,47.6,29.77,ENE,67,7.3,-999.0,78,-99.99,,,0.01,Acu-Link.com,2013-05-16 01:53:00,
2013-05-15 20:08:00,53.1,47.8,29.78,East,90,5.8,-999.0,82,-99.99,,,0.01,Acu-Link.com,2013-05-16 02:08:00,
2013-05-15 20:23:00,51.3,50.2,29.78,North,0,8.3,-999.0,96,-99.99,,,0.01,Acu-Link.com,2013-05-16 02:23:00,
2013-05-15 20:38:00,49.6,48.8,29.78,ENE,67,6.8,-999.0,97,-99.99,,,0.01,Acu-Link.com,2013-05-16 02:38:00,
2013-05-15 21:10:00,49.5,47.0,29.78,ESE,112,4.2,-999.0,91,-99.99,,,0.01,Acu-Link.com,2013-05-16 03:10:00,
2013-05-15 21:44:00,48.2,45.1,29.79,ENE,67,3.7,-999.0,89,-99.99,,,0.01,Acu-Link.com,2013-05-16 03:44:00,
2013-05-15 21:59:00,46.8,45.4,29.81,NNE,22,3.2,-999.0,95,-99.99,,,0.01,Acu-Link.com,2013-05-16 03:59:00,
2013-05-15 22:14:00,47.3,45.9,29.80,West,270,1.7,-999.0,95,-99.99,,,0.01,Acu-Link.com,2013-05-16 04:14:00,
2013-05-15 22:29:00,47.1,45.5,29.81,NW,315,1.1,-999.0,94,-99.99,,,0.01,Acu-Link.com,2013-05-16 04:29:00,
2013-05-15 22:45:00,46.9,45.5,29.81,East,90,2.7,-999.0,95,-99.99,,,0.01,Acu-Link.com,2013-05-16 04:45:00,
2013-05-15 23:00:00,47.1,46.0,29.81,NNE,22,4.7,-999.0,96,-99.99,,,0.01,Acu-Link.com,2013-05-16 05:00:00,
2013-05-15 23:15:00,47.1,45.7,29.81,NNE,22,4.7,-999.0,95,-99.99,,,0.01,Acu-Link.com,2013-05-16 05:15:00,
2013-05-15 23:30:00,46.2,45.1,29.80,North,0,4.2,-999.0,96,-99.99,,,0.01,Acu-Link.com,2013-05-16 05:30:00,
2013-05-15 23:45:00,47.5,44.4,29.80,North,0,6.8,-999.0,89,-99.99,,,0.01,Acu-Link.com,2013-05-16 05:45:00,